Latest Weather Observations for PORTABLE RFSNSW16

IDN60801

Issued at 7:03 pm EDT Tuesday 10 December 2019 (issued every 10 minutes, with the page automatically refreshed every 10 minutes)

About weather observations | Map of weather stations | Latest weather observations for NSW | Other Formats
Station Details ID: 250081 Name: PORTABLE RFSNSW16 Lat: -31.62 Lon: 152.45 Height: 668.0 m

Portable automatic weather stations (PAWS) are operated by other organisations, such as Fire and Emergency Services, and are included here by agreement. Portable stations may be deployed to a location for a short period and their location may be subject to change without notice. Wind observations from these stations are provided from heights of either three (3) or ten (10) metres above ground level (AGL).

Data from the previous 72 hours. | See also: Recent months for locations in New South Wales
Date/Time
EDT
Temp
°C
App
Temp
°C
Dew
Point
°C
Rel
Hum
%
Delta-T
°C
Wind Press
QNH
hPa
Press
MSL
hPa
Rain since
9am
mm
Dir  Spd
km/h
Gust
km/h
Spd
kts
Gust
kts
10/06:50pm 28.2 29.3 17.9 53 6.7 NNE 9 11 5 6 - - 0.0
10/06:40pm 28.7 29.3 16.8 48 7.6 NNE 9 11 5 6 - - 0.0
10/06:30pm 29.2 28.9 14.5 40 9.1 NNE 9 11 5 6 - - 0.0
10/06:20pm 29.5 29.2 14.4 39 9.4 NNE 9 9 5 5 - - 0.0
10/06:10pm 29.6 29.0 14.5 39 9.4 NE 11 13 6 7 - - 0.0
10/06:00pm 29.7 29.3 15.2 41 9.1 NNE 11 13 6 7 - - 0.0
10/05:50pm 29.6 29.4 15.6 42 8.9 NE 11 13 6 7 - - 0.0
10/05:40pm 29.5 29.3 15.7 43 8.7 NNE 11 13 6 7 - - 0.0
10/05:30pm 30.2 29.8 16.1 42 9.0 NE 13 15 7 8 - - 0.0
10/05:20pm 30.7 30.2 16.0 41 9.4 NE 13 15 7 8 - - 0.0
10/05:10pm 31.1 30.7 16.3 41 9.5 NE 13 15 7 8 - - 0.0
10/05:00pm 31.6 30.9 15.5 37 10.2 NE 13 15 7 8 - - 0.0
10/04:50pm 32.2 30.4 13.4 32 11.6 ENE 15 19 8 10 - - 0.0
10/04:40pm 32.5 29.6 10.9 26 12.9 E 17 20 9 11 - - 0.0
10/04:30pm 32.6 30.0 10.7 26 13.0 E 15 19 8 10 - - 0.0
10/04:20pm 32.8 30.4 11.5 27 12.8 E 15 19 8 10 - - 0.0
10/04:10pm 33.1 30.7 12.7 29 12.5 E 17 20 9 11 - - 0.0
10/04:00pm 33.1 30.2 12.2 28 12.7 E 19 20 10 11 - - 0.0
10/03:50pm 33.0 30.2 12.5 28 12.5 E 19 22 10 12 - - 0.0
10/03:40pm 33.2 30.2 11.8 27 13.0 E 19 20 10 11 - - 0.0
10/03:30pm 33.1 30.4 13.4 30 12.2 E 20 24 11 13 - - 0.0
10/03:20pm 33.1 30.5 13.9 31 12.0 E 20 26 11 14 - - 0.0
10/03:10pm 33.4 31.9 15.2 33 11.6 E 17 20 9 11 - - 0.0
10/03:00pm 33.0 31.0 14.9 33 11.5 E 19 20 10 11 - - 0.0
10/02:50pm 32.8 30.7 14.7 33 11.4 E 19 20 10 11 - - 0.0
10/02:40pm 33.4 31.4 14.9 32 11.7 E 19 22 10 12 - - 0.0
10/02:30pm 32.6 31.2 15.5 35 10.9 E 17 20 9 11 - - 0.0
10/02:20pm 33.1 30.7 14.4 32 11.8 E 20 24 11 13 - - 0.0
10/02:10pm 33.9 31.9 14.0 30 12.5 ESE 17 24 9 13 - - 0.0
10/02:00pm 34.1 31.9 10.9 24 13.9 E 13 17 7 9 - - 0.0
10/01:50pm 34.6 32.5 9.9 22 14.6 SE 11 20 6 11 - - 0.0
10/01:40pm 34.7 33.1 10.2 22 14.6 ENE 9 15 5 8 - - 0.0
10/01:30pm 34.5 32.3 9.2 21 14.8 ESE 11 15 6 8 - - 0.0
10/01:20pm 34.6 33.0 12.9 27 13.4 SE 13 19 7 10 - - 0.0
10/01:10pm 34.9 33.1 10.8 23 14.5 SE 11 19 6 10 - - 0.0
10/01:00pm 34.5 31.8 10.4 23 14.4 SE 15 19 8 10 - - 0.0
10/12:50pm 34.5 31.7 11.5 24 13.9 SE 17 20 9 11 - - 0.0
10/12:40pm 34.8 34.2 13.4 27 13.4 SE 9 13 5 7 - - 0.0
10/12:30pm 33.8 32.7 10.7 24 13.8 SE 7 17 4 9 - - 0.0
10/12:20pm 34.6 32.8 10.8 23 14.3 SSE 11 20 6 11 - - 0.0
10/12:10pm 34.7 34.0 11.9 25 13.9 SSW 7 15 4 8 - - 0.0
10/12:00pm 34.7 34.1 12.4 26 13.7 SSE 7 9 4 5 - - 0.0
10/11:50am 35.5 35.0 12.2 24 14.3 S 6 11 3 6 - - 0.0
10/11:40am 35.0 32.5 8.3 19 15.5 W 11 17 6 9 - - 0.0
10/11:30am 34.5 33.0 10.5 23 14.3 SW 9 15 5 8 - - 0.0
10/11:20am 34.2 33.5 12.1 26 13.5 W 7 15 4 8 - - 0.0
10/11:10am 33.7 31.5 10.9 25 13.7 NW 13 17 7 9 - - 0.0
10/11:00am 33.4 31.8 12.7 28 12.7 WNW 13 15 7 8 - - 0.0
10/10:50am 32.8 30.4 11.4 27 12.9 WNW 15 19 8 10 - - 0.0
10/10:40am 32.6 30.7 14.1 32 11.6 WNW 17 20 9 11 - - 0.0
10/10:30am 32.7 30.2 13.5 31 11.9 WNW 19 20 10 11 - - 0.0
10/10:20am 31.9 29.4 13.6 32 11.3 WNW 19 22 10 12 - - 0.0
10/10:10am 31.6 29.0 13.2 32 11.3 W 19 20 10 11 - - 0.0
10/10:00am 31.3 29.0 14.1 35 10.7 W 19 20 10 11 - - 0.0
10/09:50am 31.1 29.1 13.8 34 10.7 W 17 20 9 11 - - 0.0
10/09:40am 30.7 29.3 14.4 37 10.2 WNW 15 17 8 9 - - 0.0
10/09:30am 30.2 28.5 14.8 39 9.7 WNW 17 19 9 10 - - 0.0
10/09:20am 29.6 27.4 14.5 39 9.4 WNW 19 22 10 12 - - 0.0
10/09:10am 29.0 27.2 14.5 41 9.0 W 17 17 9 9 - - 0.0
10/09:00am 28.7 27.7 14.6 42 8.8 WNW 13 15 7 8 - - 0.0
10/08:50am 28.1 27.5 15.6 46 7.9 WNW 13 15 7 8 - - 0.0
10/08:40am 27.6 26.9 15.5 47 7.6 WNW 13 15 7 8 - - 0.0
10/08:30am 26.9 26.2 15.3 49 7.2 WNW 13 15 7 8 - - 0.0
10/08:20am 26.3 26.4 15.4 51 6.8 W 9 11 5 6 - - 0.0
10/08:10am 25.5 24.8 14.4 50 6.8 W 11 15 6 8 - - 0.0
10/08:00am 24.5 24.5 16.3 60 5.2 W 11 13 6 7 - - 0.0
10/07:50am 23.9 24.1 15.7 60 5.1 W 9 11 5 6 - - 0.0
10/07:40am 22.9 23.0 16.4 67 4.1 W 11 11 6 6 - - 0.0
10/07:30am 22.4 22.7 16.1 67 3.9 W 9 11 5 6 - - 0.0
10/07:20am 22.0 22.6 16.7 72 3.3 W 9 11 5 6 - - 0.0
10/07:10am 21.3 21.7 16.3 73 3.1 W 9 9 5 5 - - 0.0
10/07:00am 20.7 21.2 16.5 77 2.6 W 9 11 5 6 - - 0.0
10/06:50am 19.7 20.3 16.7 83 1.9 W 9 13 5 7 - - 0.0
10/06:40am 19.3 19.1 16.7 85 1.6 W 13 15 7 8 - - 0.0
10/06:30am 19.0 18.8 16.7 86 1.4 W 13 15 7 8 - - 0.0
10/06:20am 18.3 18.5 16.7 90 1.0 W 11 13 6 7 - - 0.0
10/06:10am 17.9 18.2 16.9 94 0.6 W 11 13 6 7 - - 0.0
10/06:00am 17.7 18.4 17.1 96 0.4 W 9 11 5 6 - - 0.0
10/05:50am 17.4 18.1 17.1 98 0.2 W 9 9 5 5 - - 0.0
10/05:40am 17.3 18.4 17.1 99 0.1 W 7 9 4 5 - - 0.0
10/05:30am 17.0 17.7 17.0 100 0.0 WNW 9 9 5 5 - - 0.0
10/05:20am 17.0 17.7 17.0 100 0.0 WNW 9 9 5 5 - - 0.0
10/05:10am 17.0 17.7 17.0 100 0.0 WNW 9 11 5 6 - - 0.0
10/05:00am 16.8 17.4 16.8 100 0.0 WNW 9 9 5 5 - - 0.0
10/04:50am 16.7 17.6 16.6 99 0.1 WNW 7 9 4 5 - - 0.0
10/04:40am 16.7 17.6 16.7 100 0.0 WNW 7 9 4 5 - - 0.0
10/04:30am 16.6 17.5 16.6 100 0.0 WNW 7 9 4 5 - - 0.0
10/04:20am 16.6 17.5 16.6 100 0.0 WNW 7 9 4 5 - - 0.0
10/04:10am 16.5 17.6 16.5 100 0.0 W 6 7 3 4 - - 0.0
10/04:00am 16.5 17.6 16.5 100 0.0 WNW 6 7 3 4 - - 0.0
10/03:50am 16.4 17.4 16.4 100 0.0 WNW 6 7 3 4 - - 0.0
10/03:40am 16.7 17.8 16.7 100 0.0 W 6 7 3 4 - - 0.0
10/03:30am 16.8 17.8 16.8 100 0.0 NW 7 9 4 5 - - 0.0
10/03:20am 16.8 17.8 16.8 100 0.0 NW 7 9 4 5 - - 0.0
10/03:10am 16.8 17.8 16.8 100 0.0 NW 7 9 4 5 - - 0.0
10/03:00am 16.8 17.8 16.8 100 0.0 NW 7 9 4 5 - - 0.0
10/02:50am 16.9 17.9 16.9 100 0.0 NNW 7 9 4 5 - - 0.0
10/02:40am 17.1 17.8 17.1 100 0.0 NNW 9 11 5 6 - - 0.0
10/02:30am 17.2 17.6 17.2 100 0.0 NNW 11 11 6 6 - - 0.0
10/02:20am 17.2 17.6 17.2 100 0.0 NNW 11 13 6 7 - - 0.0
10/02:10am 17.3 17.7 17.3 100 0.0 NNW 11 13 6 7 - - 0.0
10/02:00am 17.4 18.2 17.4 100 0.0 NNW 9 11 5 6 - - 0.0
10/01:50am 17.4 17.9 17.4 100 0.0 N 11 11 6 6 - - 0.0
10/01:40am 17.5 18.0 17.5 100 0.0 N 11 15 6 8 - - 0.0
10/01:30am 17.5 18.0 17.5 100 0.0 NNW 11 15 6 8 - - 0.0
10/01:20am 17.6 17.8 17.6 100 0.0 NNW 13 15 7 8 - - 0.0
10/01:10am 17.7 17.9 17.7 100 0.0 NNW 13 17 7 9 - - 0.0
10/01:00am 17.7 18.3 17.7 100 0.0 N 11 13 6 7 - - 0.0
10/12:50am 17.7 18.3 17.7 100 0.0 N 11 15 6 8 - - 0.0
10/12:40am 17.8 18.4 17.8 100 0.0 N 11 17 6 9 - - 0.0
10/12:30am 17.8 18.4 17.8 100 0.0 N 11 13 6 7 - - 0.0
10/12:20am 17.8 18.4 17.8 100 0.0 N 11 15 6 8 - - 0.0
10/12:10am 17.8 18.8 17.8 100 0.0 N 9 11 5 6 - - 0.0
10/12:00am 17.8 18.4 17.8 100 0.0 N 11 13 6 7 - - 0.0
 
Date/Time
EDT
Temp
°C
App
Temp
°C
Dew
Point
°C
Rel
Hum
%
Delta-T
°C
Wind Press
QNH
hPa
Press
MSL
hPa
Rain since
9am
mm
Dir  Spd
km/h
Gust
km/h
Spd
kts
Gust
kts
09/11:50pm 17.8 18.4 17.8 100 0.0 N 11 13 6 7 - - 0.0
09/11:40pm 17.8 18.4 17.8 100 0.0 N 11 13 6 7 - - 0.0
09/11:30pm 17.8 18.4 17.8 100 0.0 N 11 13 6 7 - - 0.0
09/11:20pm 17.8 18.4 17.8 100 0.0 N 11 15 6 8 - - 0.0
09/11:10pm 17.8 18.4 17.8 100 0.0 N 11 15 6 8 - - 0.0
09/11:00pm 17.7 18.7 17.7 100 0.0 N 9 13 5 7 - - 0.0
09/10:50pm 17.7 18.3 17.7 100 0.0 N 11 13 6 7 - - 0.0
09/10:40pm 17.7 17.9 17.7 100 0.0 N 13 15 7 8 - - 0.0
09/10:30pm 17.7 17.9 17.7 100 0.0 NNE 13 15 7 8 - - 0.0
09/10:20pm 17.7 17.9 17.7 100 0.0 N 13 15 7 8 - - 0.0
09/10:10pm 17.7 17.5 17.7 100 0.0 NNE 15 17 8 9 - - 0.0
09/10:00pm 17.7 17.9 17.7 100 0.0 NNE 13 19 7 10 - - 0.0
09/09:50pm 17.7 17.5 17.7 100 0.0 NNE 15 19 8 10 - - 0.0
09/09:40pm 17.7 17.5 17.7 100 0.0 NNE 15 17 8 9 - - 0.0
09/09:30pm 17.7 17.5 17.7 100 0.0 NNE 15 17 8 9 - - 0.0
09/09:20pm 17.7 17.5 17.7 100 0.0 NNE 15 17 8 9 - - 0.0
09/09:10pm 17.7 17.5 17.7 100 0.0 NE 15 19 8 10 - - 0.0
09/09:00pm 17.7 17.5 17.7 100 0.0 NE 15 19 8 10 - - 0.0
09/08:50pm 17.7 17.5 17.7 100 0.0 NE 15 19 8 10 - - 0.0
09/08:40pm 17.7 17.2 17.7 100 0.0 NE 17 19 9 10 - - 0.0
09/08:30pm 17.8 16.9 17.7 99 0.1 NE 19 22 10 12 - - 0.0
09/08:20pm 17.8 17.7 17.8 100 0.0 NE 15 19 8 10 - - 0.0
09/08:10pm 17.8 17.3 17.8 100 0.0 NE 17 22 9 12 - - 0.0
09/08:00pm 17.8 16.9 17.8 100 0.0 NE 19 20 10 11 - - 0.0
09/07:50pm 17.9 16.8 17.8 99 0.1 NE 20 22 11 12 - - 0.0
09/07:40pm 18.0 17.1 17.7 98 0.2 NE 19 20 10 11 - - 0.0
09/07:30pm 18.1 17.2 17.7 97 0.3 NE 19 24 10 13 - - 0.0
09/07:20pm 18.2 17.1 17.7 97 0.3 NE 20 22 11 12 - - 0.0
09/07:10pm 18.3 17.4 17.7 96 0.4 NE 19 22 10 12 - - 0.0
09/07:00pm 18.5 17.6 17.7 95 0.5 NE 19 20 10 11 - - 0.0
09/06:50pm 18.7 17.7 17.6 93 0.7 NE 19 20 10 11 - - 0.0
09/06:40pm 18.9 17.9 17.6 92 0.8 NE 19 24 10 13 - - 0.0
09/06:30pm 19.0 17.8 17.6 92 0.9 NE 20 22 11 12 - - 0.0
09/06:20pm 19.4 18.4 17.6 89 1.1 NE 19 20 10 11 - - 0.0
09/06:10pm 19.7 19.2 17.7 88 1.3 NE 17 19 9 10 - - 0.0
09/06:00pm 19.8 19.3 17.7 88 1.3 NE 17 22 9 12 - - 0.0
09/05:50pm 20.1 19.5 17.6 85 1.6 NE 17 20 9 11 - - 0.0
09/05:40pm 20.1 18.9 17.6 85 1.6 NE 20 24 11 13 - - 0.0
09/05:30pm 20.5 19.4 17.7 84 1.8 NE 20 22 11 12 - - 0.0
09/05:20pm 20.9 20.0 17.7 82 2.0 NE 19 22 10 12 - - 0.0
09/05:10pm 21.3 20.1 17.5 79 2.4 NE 20 22 11 12 - - 0.0
09/05:00pm 21.6 20.4 17.4 77 2.7 NE 20 22 11 12 - - 0.0
09/04:50pm 21.9 20.7 17.5 76 2.8 NE 20 22 11 12 - - 0.0
09/04:40pm 22.2 21.2 17.5 74 3.0 NE 19 22 10 12 - - 0.0
09/04:30pm 22.4 21.3 17.4 73 3.2 NE 19 24 10 13 - - 0.0
09/04:20pm 22.7 21.5 17.5 72 3.3 NE 20 22 11 12 - - 0.0
09/04:10pm 23.3 22.3 17.5 70 3.7 NE 19 20 10 11 - - 0.0
09/04:00pm 23.6 22.7 17.7 69 3.8 NE 19 20 10 11 - - 0.0
09/03:50pm 23.9 23.0 17.7 68 4.0 NNE 19 24 10 13 - - 0.0
09/03:40pm 24.1 23.1 17.5 66 4.2 NE 19 22 10 12 - - 0.0
09/03:30pm 24.7 24.5 17.6 64 4.6 NE 15 17 8 9 - - 0.0
09/03:20pm 24.6 24.1 17.9 66 4.3 NE 17 19 9 10 - - 0.0
09/03:10pm 24.8 24.1 17.4 63 4.7 NE 17 20 9 11 - - 0.0
09/03:00pm 25.3 25.1 17.5 62 5.0 NE 15 20 8 11 - - 0.0
09/02:50pm 25.0 24.3 17.4 62 4.9 NE 17 20 9 11 - - 0.0
09/02:40pm 25.1 24.2 16.9 60 5.2 NE 17 19 9 10 - - 0.0
09/02:30pm 25.2 24.1 17.3 61 5.1 NE 19 20 10 11 - - 0.0
09/02:20pm 25.7 25.3 17.2 59 5.4 NE 15 19 8 10 - - 0.0
09/02:10pm 25.2 24.5 17.3 61 5.1 NE 17 20 9 11 - - 0.0
09/02:00pm 26.1 26.3 17.6 59 5.5 NE 13 20 7 11 - - 0.0
09/01:50pm 25.2 24.5 17.3 61 5.1 NE 17 20 9 11 - - 0.0
09/01:40pm 25.5 24.6 16.8 58 5.5 NE 17 22 9 12 - - 0.0
09/01:30pm 25.7 25.2 16.9 58 5.6 NNE 15 19 8 10 - - 0.0
09/01:20pm 26.0 25.9 17.0 57 5.7 NNE 13 19 7 10 - - 0.0
09/01:10pm 25.7 25.5 16.7 57 5.7 NNE 13 17 7 9 - - 0.0
09/01:00pm 25.5 25.2 16.4 57 5.7 NNE 13 15 7 8 - - 0.0
09/12:50pm 25.0 24.6 17.1 61 5.0 ENE 15 20 8 11 - - 0.0
09/12:40pm 25.3 24.8 16.0 56 5.8 NNE 13 17 7 9 - - 0.0
09/12:30pm 25.4 24.8 15.7 55 6.1 N 13 17 7 9 - - 0.0
09/12:20pm 24.5 23.4 15.2 56 5.7 NNE 15 19 8 10 - - 0.0
09/12:10pm 24.3 22.7 14.0 52 6.2 NNE 15 19 8 10 - - 0.0
09/12:00pm 24.5 23.2 14.7 54 6.0 NE 15 19 8 10 - - 0.0
09/11:50am 24.0 22.6 14.5 55 5.8 NNE 15 17 8 9 - - 0.0
09/11:40am 23.6 21.9 14.8 57 5.4 NNE 17 19 9 10 - - 0.0
09/11:30am 23.6 22.4 15.0 58 5.3 NNE 15 19 8 10 - - 0.0
09/11:20am 23.2 21.6 15.1 60 5.0 NE 17 20 9 11 - - 0.0
09/11:10am 23.2 21.6 15.1 60 5.0 NNE 17 19 9 10 - - 0.0
09/11:00am 23.1 22.4 15.3 61 4.8 NNE 13 17 7 9 - - 0.0
09/10:50am 23.0 22.3 15.3 62 4.7 NNE 13 17 7 9 - - 0.0
09/10:40am 22.3 20.9 14.6 61 4.7 NE 15 20 8 11 - - 0.0
09/10:30am 22.4 22.1 15.4 64 4.3 NNE 11 17 6 9 - - 0.0
09/10:20am 21.8 21.0 15.0 65 4.1 N 13 17 7 9 - - 0.0
09/10:10am 20.8 19.1 14.8 68 3.6 NNE 17 20 9 11 - - 0.0
09/10:00am 21.3 20.2 15.2 68 3.7 NNE 15 19 8 10 - - 0.2
09/09:50am 21.4 20.4 15.5 69 3.6 NNE 15 17 8 9 - - 0.2
09/09:40am 20.9 19.9 15.6 71 3.3 NNE 15 17 8 9 - - 0.2
09/09:30am 20.2 19.7 15.8 76 2.7 NNE 13 15 7 8 - - 0.2
09/09:20am 20.0 19.2 16.1 78 2.4 NNE 15 17 8 9 - - 0.2
09/09:10am 20.4 20.3 16.1 76 2.7 NNE 11 17 6 9 - - 0.2
09/09:00am 19.3 18.7 15.7 79 2.2 N 13 15 7 8 - - 0.2
09/08:50am 19.1 18.9 15.8 81 2.0 N 11 13 6 7 - - 0.2
09/08:40am 18.8 18.2 15.6 82 1.9 N 13 17 7 9 - - 0.2
09/08:30am 18.3 17.8 15.8 85 1.5 N 13 17 7 9 - - 0.2
09/08:20am 17.9 17.4 15.9 88 1.2 N 13 15 7 8 - - 0.2
09/08:10am 17.6 17.6 16.2 91 0.9 N 11 15 6 8 - - 0.2
09/08:00am 17.4 17.4 16.2 93 0.7 N 11 15 6 8 - - 0.2
09/07:50am 17.2 17.1 15.9 92 0.8 N 11 17 6 9 - - 0.2
09/07:40am 17.0 16.4 15.7 92 0.8 N 13 17 7 9 - - 0.2
09/07:30am 16.8 15.8 15.7 93 0.7 NNE 15 19 8 10 - - 0.2
09/07:20am 16.6 16.4 15.7 94 0.5 N 11 17 6 9 - - 0.2
09/07:10am 16.3 15.9 16.1 99 0.1 NNE 13 15 7 8 - - 0.2
09/07:00am 16.2 16.1 15.9 98 0.2 N 11 13 6 7 - - 0.2
09/06:50am 16.0 15.9 16.0 100 0.0 N 11 13 6 7 - - 0.2
09/06:40am 16.0 15.5 16.0 100 0.0 N 13 17 7 9 - - 0.2
09/06:30am 15.9 15.4 15.9 100 0.0 NNE 13 17 7 9 - - 0.2
09/06:20am 15.8 14.9 15.8 100 0.0 NNE 15 19 8 10 - - 0.2
09/06:10am 15.8 14.5 15.8 100 0.0 NNE 17 19 9 10 - - 0.2
09/06:00am 15.7 14.7 15.7 100 0.0 NNE 15 19 8 10 - - 0.2
09/05:50am 15.7 14.7 15.7 100 0.0 NNE 15 19 8 10 - - 0.2
09/05:40am 15.7 14.7 15.7 100 0.0 NNE 15 19 8 10 - - 0.2
09/05:30am 15.7 14.7 15.7 100 0.0 NNE 15 17 8 9 - - 0.2
09/05:20am 15.7 14.7 15.7 100 0.0 NNE 15 17 8 9 - - 0.2
09/05:10am 15.7 14.7 15.7 100 0.0 NNE 15 19 8 10 - - 0.2
09/05:00am 15.7 15.5 15.7 100 0.0 NNE 11 15 6 8 - - 0.2
09/04:50am 15.7 14.7 15.7 100 0.0 NNE 15 17 8 9 - - 0.2
09/04:40am 15.7 14.7 15.7 100 0.0 NNE 15 20 8 11 - - 0.2
09/04:30am 15.7 14.4 15.7 100 0.0 NNE 17 19 9 10 - - 0.2
09/04:20am 15.7 14.7 15.7 100 0.0 NNE 15 17 8 9 - - 0.2
09/04:10am 15.7 15.1 15.7 100 0.0 NNE 13 19 7 10 - - 0.2
09/04:00am 15.7 15.1 15.7 100 0.0 NNE 13 19 7 10 - - 0.2
09/03:50am 15.7 14.7 15.7 100 0.0 NNE 15 19 8 10 - - 0.2
09/03:40am 15.7 15.1 15.7 100 0.0 NNE 13 17 7 9 - - 0.2
09/03:30am 15.6 15.0 15.6 100 0.0 NNE 13 17 7 9 - - 0.2
09/03:20am 15.5 15.2 15.5 100 0.0 N 11 15 6 8 - - 0.2
09/03:10am 15.5 15.6 15.5 100 0.0 N 9 11 5 6 - - 0.2
09/03:00am 15.6 15.7 15.6 100 0.0 N 9 15 5 8 - - 0.2
09/02:50am 15.6 15.7 15.6 100 0.0 N 9 11 5 6 - - 0.2
09/02:40am 15.6 15.0 15.6 100 0.0 NNE 13 15 7 8 - - 0.2
09/02:30am 15.6 15.0 15.6 100 0.0 N 13 17 7 9 - - 0.2
09/02:20am 15.5 14.8 15.5 100 0.0 NNE 13 17 7 9 - - 0.2
09/02:10am 15.5 14.8 15.5 100 0.0 NNE 13 17 7 9 - - 0.2
09/02:00am 15.6 15.4 15.6 100 0.0 NNE 11 17 6 9 - - 0.2
09/01:50am 15.5 15.2 15.5 100 0.0 N 11 17 6 9 - - 0.2
09/01:40am 15.5 14.1 15.5 100 0.0 NNE 17 20 9 11 - - 0.2
09/01:30am 15.5 14.1 15.5 100 0.0 NNE 17 20 9 11 - - 0.2
09/01:20am 15.5 14.1 15.5 100 0.0 NNE 17 20 9 11 - - 0.2
09/01:10am 15.5 14.1 15.5 100 0.0 NNE 17 19 9 10 - - 0.2
09/01:00am 15.6 14.6 15.6 100 0.0 NNE 15 17 8 9 - - 0.2
09/12:50am 15.6 15.0 15.6 100 0.0 NNE 13 15 7 8 - - 0.2
09/12:40am 15.6 15.0 15.6 100 0.0 NNE 13 15 7 8 - - 0.0
09/12:30am 15.7 14.7 15.6 99 0.1 NNE 15 17 8 9 - - 0.0
09/12:20am 15.7 15.1 15.7 100 0.0 NNE 13 15 7 8 - - 0.0
09/12:10am 15.7 15.1 15.7 100 0.0 NNE 13 13 7 7 - - 0.0
09/12:00am 15.7 15.1 15.7 100 0.0 NNE 13 17 7 9 - - 0.0
 
Date/Time
EDT
Temp
°C
App
Temp
°C
Dew
Point
°C
Rel
Hum
%
Delta-T
°C
Wind Press
QNH
hPa
Press
MSL
hPa
Rain since
9am
mm
Dir  Spd
km/h
Gust
km/h
Spd
kts
Gust
kts
08/11:50pm 15.7 15.1 15.7 100 0.0 NNE 13 17 7 9 - - 0.0
08/11:40pm 15.8 15.3 15.8 100 0.0 NNE 13 17 7 9 - - 0.0
08/11:30pm 15.8 15.3 15.8 100 0.0 NNE 13 15 7 8 - - 0.0
08/11:20pm 15.9 15.4 15.9 100 0.0 NE 13 17 7 9 - - 0.0
08/11:10pm 15.9 15.0 15.8 99 0.1 NNE 15 17 8 9 - - 0.0
08/11:00pm 15.9 15.4 15.8 99 0.1 NNE 13 15 7 8 - - 0.0
08/10:50pm 16.0 15.0 15.7 98 0.2 NNE 15 15 8 8 - - 0.0
08/10:40pm 16.1 15.2 15.8 98 0.2 NE 15 20 8 11 - - 0.0
08/10:30pm 16.1 15.6 15.8 98 0.2 NE 13 17 7 9 - - 0.0
08/10:20pm 16.2 14.9 15.7 97 0.3 NE 17 19 9 10 - - 0.0
08/10:10pm 16.2 14.8 15.6 96 0.4 NE 17 20 9 11 - - 0.0
08/10:00pm 16.2 14.8 15.6 96 0.4 NE 17 20 9 11 - - 0.0
08/09:50pm 16.2 14.8 15.6 96 0.4 NE 17 20 9 11 - - 0.0
08/09:40pm 16.2 14.4 15.6 96 0.4 NE 19 19 10 10 - - 0.0
08/09:30pm 16.2 14.4 15.5 96 0.4 NE 19 22 10 12 - - 0.0
08/09:20pm 16.2 14.8 15.5 96 0.4 NE 17 19 9 10 - - 0.0
08/09:10pm 16.3 14.8 15.4 94 0.5 NE 17 20 9 11 - - 0.0
08/09:00pm 16.3 15.5 15.2 93 0.7 NE 13 15 7 8 - - 0.0
08/08:50pm 16.3 14.8 15.2 93 0.7 NE 17 19 9 10 - - 0.0
08/08:40pm 16.4 14.5 15.1 92 0.8 NE 19 22 10 12 - - 0.0
08/08:30pm 16.4 14.8 15.0 91 0.8 NE 17 20 9 11 - - 0.0
08/08:20pm 16.5 14.9 14.9 90 1.0 NE 17 20 9 11 - - 0.0
08/08:10pm 16.6 15.0 15.0 90 1.0 NE 17 19 9 10 - - 0.0
08/08:00pm 16.8 15.5 14.9 88 1.1 NE 15 19 8 10 - - 0.0
08/07:50pm 16.9 15.6 14.9 88 1.2 NE 15 19 8 10 - - 0.0
08/07:40pm 16.9 15.3 14.9 88 1.2 NE 17 20 9 11 - - 0.0
08/07:30pm 17.1 15.8 14.8 86 1.4 NE 15 19 8 10 - - 0.0
08/07:20pm 17.2 15.5 14.8 86 1.4 NE 17 19 9 10 - - 0.0
08/07:10pm 17.4 15.7 14.7 84 1.6 NE 17 19 9 10 - - 0.0
08/07:00pm 17.7 16.0 14.6 82 1.8 ENE 17 20 9 11 - - 0.0
08/06:50pm 17.8 16.0 14.5 81 2.0 ENE 17 19 9 10 - - 0.0
08/06:40pm 18.0 15.8 14.4 79 2.1 NE 19 22 10 12 - - 0.0
08/06:30pm 18.1 15.3 14.4 79 2.2 ENE 22 26 12 14 - - 0.0
08/06:20pm 18.4 16.2 14.4 77 2.4 NE 19 22 10 12 - - 0.0
08/06:10pm 18.6 16.2 14.4 76 2.5 NE 20 24 11 13 - - 0.0
08/06:00pm 19.0 16.8 14.3 74 2.8 NE 19 22 10 12 - - 0.0
08/05:50pm 19.4 17.6 14.4 73 3.0 NE 17 22 9 12 - - 0.0
08/05:40pm 19.7 17.3 14.3 71 3.2 NE 20 22 11 12 - - 0.0
08/05:30pm 20.0 17.7 14.2 69 3.5 NE 19 22 10 12 - - 0.0
08/05:20pm 20.4 17.9 14.0 66 3.8 ENE 20 26 11 14 - - 0.0
08/05:10pm 20.5 17.6 13.9 66 3.9 ENE 22 26 12 14 - - 0.0
08/05:00pm 21.1 17.7 13.7 62 4.4 ENE 24 26 13 14 - - 0.0
08/04:50pm 21.5 18.5 13.6 60 4.7 ENE 22 26 12 14 - - 0.0
08/04:40pm 21.6 18.6 13.8 61 4.7 ENE 22 26 12 14 - - 0.0
08/04:30pm 21.9 19.3 13.8 60 4.8 ENE 20 22 11 12 - - 0.0
08/04:20pm 21.9 18.8 13.4 58 5.0 E 22 26 12 14 - - 0.0
08/04:10pm 22.5 19.9 13.8 58 5.2 ENE 20 24 11 13 - - 0.0
08/04:00pm 22.6 19.6 13.8 57 5.3 E 22 26 12 14 - - 0.0
08/03:50pm 22.9 19.9 13.8 56 5.5 ENE 22 28 12 15 - - 0.0
08/03:40pm 23.2 20.6 13.9 56 5.6 ENE 20 24 11 13 - - 0.0
08/03:30pm 23.2 20.7 14.0 56 5.5 ENE 20 24 11 13 - - 0.0
08/03:20pm 23.9 22.0 14.3 55 5.8 NNE 17 20 9 11 - - 0.0
08/03:10pm 23.7 21.4 14.1 55 5.8 NE 19 22 10 12 - - 0.0
08/03:00pm 24.1 21.8 14.2 54 6.0 NE 19 20 10 11 - - 0.0
08/02:50pm 24.2 22.4 14.4 54 6.0 NE 17 20 9 11 - - 0.0
08/02:40pm 23.8 21.9 14.1 54 5.9 NE 17 24 9 13 - - 0.0
08/02:30pm 24.0 21.7 14.0 53 6.0 NE 19 22 10 12 - - 0.0
08/02:20pm 24.0 21.5 14.1 54 6.0 ENE 20 24 11 13 - - 0.0
08/02:10pm 24.5 22.4 14.7 54 6.0 NE 19 26 10 14 - - 0.0
08/02:00pm 24.3 22.9 15.5 58 5.5 NNE 17 20 9 11 - - 0.0
08/01:50pm 24.4 22.9 15.2 56 5.7 NE 17 20 9 11 - - 0.0
08/01:40pm 23.8 22.0 14.5 56 5.7 ENE 17 22 9 12 - - 0.0
08/01:30pm 23.2 20.7 14.0 56 5.5 ENE 20 22 11 12 - - 0.0
08/01:20pm 23.3 22.1 14.0 56 5.6 ENE 13 19 7 10 - - 0.0
08/01:10pm 23.7 22.9 15.0 58 5.3 NE 13 17 7 9 - - 0.0
08/01:00pm 23.6 22.3 13.8 54 5.9 NNE 13 19 7 10 - - 0.0
08/12:50pm 23.7 22.5 13.9 54 5.9 ENE 13 19 7 10 - - 0.0
08/12:40pm 23.5 22.1 13.4 53 6.0 NE 13 19 7 10 - - 0.0
08/12:30pm 23.8 22.1 14.8 57 5.5 ENE 17 20 9 11 - - 0.0
08/12:20pm 22.8 22.0 14.1 58 5.2 NE 11 15 6 8 - - 0.0
08/12:10pm 22.5 21.0 13.2 55 5.5 ENE 13 19 7 10 - - 0.0
08/12:00pm 23.2 21.8 13.3 53 5.9 NE 13 19 7 10 - - 0.0
08/11:50am 22.7 21.0 12.4 52 6.0 ENE 13 17 7 9 - - 0.0
08/11:40am 23.1 21.8 13.6 55 5.7 NNE 13 17 7 9 - - 0.0
08/11:30am 22.1 21.1 13.5 58 5.1 NE 11 17 6 9 - - 0.0
08/11:20am 22.2 20.4 13.4 57 5.2 NE 15 20 8 11 - - 0.0
08/11:10am 21.5 19.4 13.6 60 4.7 ENE 17 20 9 11 - - 0.0
08/11:00am 21.5 19.8 13.5 60 4.8 NE 15 19 8 10 - - 0.0
08/10:50am 21.0 19.3 13.7 63 4.3 ENE 15 19 8 10 - - 0.0
08/10:40am 21.0 19.2 13.3 61 4.5 NE 15 20 8 11 - - 0.0
08/10:30am 21.3 20.0 12.5 57 5.1 NE 11 19 6 10 - - 0.0
08/10:20am 20.8 20.2 14.5 67 3.8 NNE 11 15 6 8 - - 0.0
08/10:10am 19.9 19.2 14.3 70 3.3 NNE 11 15 6 8 - - 0.0
08/10:00am 19.1 17.7 13.4 69 3.3 NE 13 17 7 9 - - 0.0
08/09:50am 19.0 18.6 14.0 73 3.0 NNE 9 13 5 7 - - 0.0
08/09:40am 18.9 18.4 13.7 72 3.1 NE 9 13 5 7 - - 0.0
08/09:30am 18.9 17.8 14.4 75 2.7 NE 13 17 7 9 - - 0.0
08/09:20am 18.4 17.7 14.3 77 2.4 NNE 11 15 6 8 - - 0.0
08/09:10am 18.2 18.1 14.9 81 2.0 NNE 9 13 5 7 - - 0.0
08/09:00am 17.6 17.1 14.9 84 1.6 NE 11 15 6 8 - - 0.0
08/08:50am 18.1 17.7 15.1 82 1.8 NNE 11 13 6 7 - - 0.0
08/08:40am 18.2 17.4 15.2 82 1.8 NNE 13 17 7 9 - - 0.0
08/08:30am 17.5 16.4 15.2 86 1.4 NE 15 17 8 9 - - 0.0
08/08:20am 17.3 16.6 15.4 88 1.1 NE 13 15 7 8 - - 0.0
08/08:10am 16.8 16.8 15.3 91 0.9 NE 9 13 5 7 - - 0.0
08/08:00am 16.5 16.2 15.4 93 0.7 NE 11 13 6 7 - - 0.0
08/07:50am 16.6 16.7 15.6 94 0.6 NE 9 13 5 7 - - 0.0
08/07:40am 16.5 16.3 15.6 94 0.5 NE 11 15 6 8 - - 0.0
08/07:30am 16.2 15.6 15.7 97 0.3 NE 13 15 7 8 - - 0.0
08/07:20am 16.2 15.7 16.0 99 0.1 ENE 13 15 7 8 - - 0.0
08/07:10am 16.1 15.6 15.9 99 0.1 ENE 13 17 7 9 - - 0.0
08/07:00am 15.8 16.0 15.8 100 0.0 ENE 9 11 5 6 - - 0.0
08/06:50am 15.7 15.9 15.7 100 0.0 NE 9 13 5 7 - - 0.0
08/06:40am 15.5 15.6 15.5 100 0.0 NE 9 11 5 6 - - 0.0
08/06:30am 15.4 15.5 15.4 100 0.0 NE 9 13 5 7 - - 0.0
08/06:20am 15.4 15.1 15.4 100 0.0 ENE 11 15 6 8 - - 0.0
08/06:10am 15.0 15.3 15.0 100 0.0 ENE 7 7 4 4 - - 0.0
08/06:00am 15.0 15.3 15.0 100 0.0 ENE 7 11 4 6 - - 0.0
08/05:50am 15.0 15.3 15.0 100 0.0 ENE 7 9 4 5 - - 0.0
08/05:40am 15.1 15.1 15.1 100 0.0 ENE 9 13 5 7 - - 0.0
08/05:30am 15.2 14.8 15.2 100 0.0 E 11 13 6 7 - - 0.0
08/05:20am 15.2 14.8 15.2 100 0.0 ENE 11 13 6 7 - - 0.0
08/05:10am 15.2 15.2 15.2 100 0.0 E 9 11 5 6 - - 0.0
08/05:00am 15.2 15.2 15.2 100 0.0 E 9 9 5 5 - - 0.0
08/04:50am 15.1 15.4 15.1 100 0.0 ENE 7 9 4 5 - - 0.0
08/04:40am 15.3 15.3 15.3 100 0.0 ENE 9 11 5 6 - - 0.0
08/04:30am 15.2 15.2 15.2 100 0.0 E 9 11 5 6 - - 0.0
08/04:20am 15.2 15.6 15.2 100 0.0 ENE 7 13 4 7 - - 0.0
08/04:10am 15.1 15.1 15.1 100 0.0 E 9 9 5 5 - - 0.0
08/04:00am 15.2 15.2 15.2 100 0.0 E 9 13 5 7 - - 0.0
08/03:50am 15.3 14.9 15.3 100 0.0 E 11 13 6 7 - - 0.0
08/03:40am 15.3 14.9 15.2 99 0.1 E 11 13 6 7 - - 0.0
08/03:30am 15.1 15.1 15.1 100 0.0 E 9 11 5 6 - - 0.0
08/03:20am 15.2 15.2 15.2 100 0.0 E 9 13 5 7 - - 0.0
08/03:10am 15.1 15.1 15.1 100 0.0 E 9 11 5 6 - - 0.0
08/03:00am 15.3 15.3 15.3 100 0.0 E 9 11 5 6 - - 0.0
08/02:50am 15.2 15.2 15.2 100 0.0 E 9 9 5 5 - - 0.0
08/02:40am 15.2 15.2 15.2 100 0.0 E 9 11 5 6 - - 0.0
08/02:30am 15.3 15.3 15.3 100 0.0 E 9 11 5 6 - - 0.0
08/02:20am 15.4 15.0 15.3 99 0.1 E 11 13 6 7 - - 0.0
08/02:10am 15.4 14.7 15.4 100 0.0 E 13 15 7 8 - - 0.0
08/02:00am 15.4 15.1 15.4 100 0.0 E 11 11 6 6 - - 0.0
08/01:50am 15.3 14.9 15.3 100 0.0 E 11 13 6 7 - - 0.0
08/01:40am 15.2 15.8 15.2 100 0.0 E 6 7 3 4 - - 0.0
08/01:30am 15.4 15.8 15.4 100 0.0 E 7 9 4 5 - - 0.0
08/01:20am 15.3 15.9 15.3 100 0.0 E 6 7 3 4 - - 0.0
08/01:10am 15.2 15.8 15.2 100 0.0 E 6 9 3 5 - - 0.0
08/01:00am 15.3 15.7 15.3 100 0.0 E 7 11 4 6 - - 0.0
08/12:50am 15.2 15.6 15.2 100 0.0 ENE 7 7 4 4 - - 0.0
08/12:40am 15.2 15.6 15.2 100 0.0 NNE 7 7 4 4 - - 0.0
08/12:30am 14.9 15.4 14.9 100 0.0 NE 6 7 3 4 - - 0.0
08/12:20am 14.6 14.9 14.6 100 0.0 NNE 6 6 3 3 - - 0.0
08/12:10am 14.7 15.1 14.7 100 0.0 NNE 6 6 3 3 - - 0.0
08/12:00am 14.8 15.2 14.8 100 0.0 N 6 6 3 3 - - 0.0
 
Date/Time
EDT
Temp
°C
App
Temp
°C
Dew
Point
°C
Rel
Hum
%
Delta-T
°C
Wind Press
QNH
hPa
Press
MSL
hPa
Rain since
9am
mm
Dir  Spd
km/h
Gust
km/h
Spd
kts
Gust
kts
07/11:50pm 14.8 15.1 14.5 98 0.2 N 6 7 3 4 - - 0.0
07/11:40pm 14.9 15.6 14.4 97 0.3 N 4 6 2 3 - - 0.0
07/11:30pm 14.9 15.9 14.4 97 0.3 N 2 4 1 2 - - 0.0
07/11:20pm 14.9 16.0 14.7 99 0.1 N 2 6 1 3 - - 0.0
07/11:10pm 14.9 15.7 14.9 100 0.0 N 4 4 2 2 - - 0.0
07/11:00pm 15.0 15.9 15.0 100 0.0 N 4 4 2 2 - - 0.0
07/10:50pm 15.0 15.9 15.0 100 0.0 N 4 4 2 2 - - 0.0
07/10:40pm 15.0 15.9 15.0 100 0.0 NNW 4 4 2 2 - - 0.0
07/10:30pm 14.9 15.7 14.7 99 0.1 NNW 4 6 2 3 - - 0.0
07/10:20pm 14.8 15.5 14.4 97 0.2 NNW 4 7 2 4 - - 0.0
07/10:10pm 15.0 15.5 14.0 94 0.6 N 4 4 2 2 - - 0.0
07/10:00pm 15.0 15.1 14.0 94 0.6 N 6 6 3 3 - - 0.0
07/09:50pm 15.2 15.3 13.9 92 0.8 N 6 6 3 3 - - 0.0
07/09:40pm 15.4 15.5 13.8 90 0.9 N 6 6 3 3 - - 0.0
07/09:30pm 15.4 15.8 13.6 89 1.0 N 4 6 2 3 - - 0.0
07/09:20pm 15.5 15.8 13.4 87 1.2 N 4 6 2 3 - - 0.0
07/09:10pm 15.6 15.3 13.3 86 1.3 NNE 7 9 4 5 - - 0.0
07/09:00pm 15.7 15.4 13.3 86 1.4 NNE 7 7 4 4 - - 0.0
07/08:50pm 16.0 15.6 13.1 83 1.7 NNE 7 7 4 4 - - 0.0
07/08:40pm 16.2 15.9 12.7 80 2.0 NNE 6 7 3 4 - - 0.0
07/08:30pm 16.4 16.8 12.5 78 2.2 NNE 2 4 1 2 - - 0.0
07/08:20pm 16.8 16.7 12.2 74 2.6 NE 4 6 2 3 - - 0.0
07/08:10pm 17.0 17.0 12.4 74 2.6 ENE 4 4 2 2 - - 0.0
07/08:00pm 17.3 17.3 12.3 72 2.9 NE 4 6 2 3 - - 0.0
07/07:50pm 17.5 17.5 12.3 71 3.0 E 4 6 2 3 - - 0.0
07/07:40pm 17.6 17.2 12.3 71 3.0 E 6 9 3 5 - - 0.0
07/07:30pm 17.8 17.4 12.3 70 3.1 SE 6 6 3 3 - - 0.0
07/07:20pm 18.4 18.0 12.4 68 3.4 ESE 6 6 3 3 - - 0.0
07/07:10pm 18.8 18.2 12.3 66 3.7 ESE 7 9 4 5 - - 0.0

Other formats

Comma delimited format used in spreadsheet applications
http://www.bom.gov.au/fwo/IDN60801/IDN60801.99790.axf

JavaScript Object Notation format (JSON) in row-major order
http://www.bom.gov.au/fwo/IDN60801/IDN60801.99790.json

Data quality

Most of these data are generated automatically and are frequently updated. Quality checks on data are not normally performed. It is possible for incorrect values to appear. Refer to information at About Latest Weather Observations and please check the disclaimer before using these data.